EGEC/CAL METAR and TAF weather

Enter ICAO airport designator
Station Type Date Time Source
EGEC METAR 2019/10/15 09:20 UTC NOAA

EGEC 150920Z 12014KT 9999 FEW014 11/09 Q1001


Station Type Date Time Source
EGEC Decoded METAR 2019/10/15 09:20 UTC NOAA

Campbeltown, United Kingdom (EGEC) 55-26-14N 005-41-11W
Oct 15, 2019 - 05:20 AM EDT / 2019.10.15 0920 UTC
Wind: from the ESE (120 degrees) at 16 MPH (14 KT):0
Visibility: greater than 7 mile(s):0
Sky conditions: mostly clear
Temperature: 51 F (11 C)
Dew Point: 48 F (9 C)
Relative Humidity: 87%
Pressure (altimeter): 29.56 in. Hg (1001 hPa)
ob: EGEC 150920Z 12014KT 9999 FEW014 11/09 Q1001
cycle: 9

Station Type Date Time Source
EGEC TAF UTC NOAA

Error!

Example: see airport list